Details From KAGS - Augusta Rgnl At Bush Fld
To KDNL - Daniel Fld
Flight Number -
Tags generated
Created
Modified
Stats Distance 30 nm / 55 km
Max Altitude 3,100 ft / 945 m
Waypoints 3
Social Downloads 0
Likes 0
Share VATSIM

Download

Looking for another format? Having issues loading an existing format? Contact us
Advertisement - Login to hide

Notes

Basic altitude profile: - Ascent Rate: 2500ft/min - Ascent Speed: 250kts - Cruise Altitude: 35000ft - Cruise Speed: 420kts - Descent Rate: 1500ft/min - Descent Speed: 250kts

Route

KAGS LASHE KDNL

ID Type Via Altitude Latitude Longitude Leg Dist Tot Dist Heading (true) Name
O KAGS APT - 0 ft / 0 m 33.36968˚ -81.96390˚ - 0 nm - Augusta Rgnl At Bush Fld
LASHE FIX - 3,100 ft / 945 m 33.56066˚ -81.76869˚ 15 nm 15 nm 40° / 41° -
O KDNL APT - 0 ft / 0 m 33.46657˚ -82.03940˚ 14 nm 29 nm 247° / 247° Daniel Fld

Altitude Profile

Advertisement - Login to hide

KAGS

Details ICAO KAGS (AGS)
Name Augusta Rgnl At Bush Fld
Region United States
Timezone America/New_York (UTC-5.0)
Stats Elevation 144 ft / 44 m (AMSL)
Location 33.369676° -81.963895°
Runways 2
Magnetic Variation 6.720° W

METAR

KAGS 142153Z 26004KT 10SM CLR 13/02 A2993 RMK AO2 SLP133 T01330017

Decode

TAF

TAF AMD KAGS 142057Z 1421/1518 24008KT P6SM BKN250 FM142300 VRB03KT P6SM SCT150 FM151600 27008KT P6SM BKN150

Decode

Departure Runways

ID Width Length Bearing (true) Bearing (mag) Surface Threshold Offset Overrun Length
08 75 ft / 23 m 5,991 ft / 1,826 m 78.15° 84.87° Asphalt 0 ft / 0 m 0 ft / 0 m
17 150 ft / 46 m 8,021 ft / 2,445 m 168.17° 174.89° Asphalt 0 ft / 0 m 0 ft / 0 m
26 75 ft / 23 m 5,991 ft / 1,826 m 258.16° 264.88° Asphalt 0 ft / 0 m 0 ft / 0 m
35 150 ft / 46 m 8,021 ft / 2,445 m 348.18° 354.90° Asphalt 0 ft / 0 m 0 ft / 0 m

KDNL

Details ICAO KDNL (DNL)
Name Daniel Fld
Region United States
Timezone America/New_York (UTC-5.0)
Stats Elevation 422 ft / 129 m (AMSL)
Location 33.466567° -82.039397°
Runways 2
Magnetic Variation 6.685° W

METAR

KDNL 142153Z AUTO VRB04KT 10SM CLR 13/02 A2993 RMK AO2 SLP135 T01330017

Decode

TAF

KDNL 142057Z 1421/1518 22005KT P6SM BKN250 FM142300 VRB03KT P6SM SCT150 FM151600 27007KT P6SM BKN150

Decode

Destination Runways

ID Width Length Bearing (true) Bearing (mag) Surface Threshold Offset Overrun Length
05 98 ft / 30 m 4,005 ft / 1,221 m 44.89° 51.57° Asphalt 200 ft / 61 m 0 ft / 0 m
11 98 ft / 30 m 3,732 ft / 1,137 m 104.11° 110.79° Asphalt 325 ft / 99 m 400 ft / 122 m
23 98 ft / 30 m 4,005 ft / 1,221 m 224.89° 231.57° Asphalt 289 ft / 88 m 151 ft / 46 m
29 98 ft / 30 m 3,732 ft / 1,137 m 284.12° 290.80° Asphalt 315 ft / 96 m 200 ft / 61 m